Terminal Aerodrome Forecast
Issued by NWS

Home | Current Version | Previous Version | Text Only | Print | Product List | Glossary On
Versions: 1 2 3 4 5 6 7 8 9 10 11 12 13
000
FTUS45 KRIW 301130
TAFCPR
TAF
KCPR 301130Z 3012/3112 23011KT P6SM SCT100 BKN150
     FM302000 30012G18KT P6SM SCT090
     FM302200 33012G20KT P6SM VCTS SCT050CB BKN070
     FM310200 36011KT P6SM VCSH BKN050
     FM310600 31008KT P6SM BKN045=

USA.gov is the U.S. government's official web portal to all federal, state and local government web resources and services.